Time;durP1;ratioP1;P1;durP2;ratioP2;P2;SDS_P1;SDS_P2;PMS_P1;PMS_P2;Temp;Humidity;BMP_temperature;BMP_pressure;BME280_temperature;BME280_humidity;BME280_pressure;Samples;Min_cycle;Max_cycle;Signal;HPM_P1;HPM_P2
2024/02/22 05:06:43;;;;;;;0.43;0.43;;;10.80;99.90;;;;;;5458638;23;20231;-64
2024/02/22 05:09:13;;;;;;;0.30;0.30;;;10.80;99.90;;;;;;4924798;29;20396;-63
2024/02/22 05:11:47;;;;;;;0.40;0.40;;;10.80;99.90;;;;;;4954806;29;20663;-63
2024/02/22 05:14:13;;;;;;;0.40;0.40;;;10.80;99.90;;;;;;4940462;29;20181;-64
2024/02/22 05:16:39;;;;;;;0.30;0.20;;;10.80;99.90;;;;;;4935163;29;20195;-63
2024/02/22 05:19:05;;;;;;;0.30;0.30;;;10.70;99.90;;;;;;4935562;29;20736;-64
2024/02/22 05:21:31;;;;;;;0.30;0.30;;;10.70;99.90;;;;;;4935890;29;20203;-63
2024/02/22 05:23:57;;;;;;;0.30;0.30;;;10.70;99.90;;;;;;4935595;29;20193;-63
2024/02/22 05:26:23;;;;;;;0.30;0.30;;;10.60;99.90;;;;;;4949299;29;20229;-63
2024/02/22 05:28:49;;;;;;;0.30;0.30;;;10.70;99.90;;;;;;4954552;29;20216;-63
2024/02/22 05:31:24;;;;;;;0.30;0.30;;;10.60;99.90;;;;;;4937405;29;20178;-63
2024/02/22 05:33:50;;;;;;;0.38;0.38;;;10.60;99.90;;;;;;4954885;29;20245;-63
2024/02/22 05:36:22;;;;;;;0.30;0.30;;;10.50;99.90;;;;;;4953036;29;20280;-63
2024/02/22 05:38:48;;;;;;;0.40;0.40;;;10.50;99.90;;;;;;4954160;29;20417;-63
2024/02/22 05:41:15;;;;;;;0.30;0.30;;;10.40;99.90;;;;;;4954610;29;20175;-64
2024/02/22 05:43:40;;;;;;;0.30;0.30;;;10.40;99.90;;;;;;4954723;29;20205;-63
2024/02/22 05:46:07;;;;;;;0.30;0.30;;;10.40;99.90;;;;;;4954108;29;20198;-63
2024/02/22 05:48:32;;;;;;;0.30;0.30;;;10.40;99.90;;;;;;4954653;29;20475;-64
2024/02/22 05:50:58;;;;;;;0.30;0.30;;;10.40;99.90;;;;;;4954449;29;20183;-63
2024/02/22 05:53:24;;;;;;;0.30;0.30;;;10.30;99.90;;;;;;4954333;29;20210;-65
2024/02/22 05:55:49;;;;;;;0.30;0.30;;;10.40;99.90;;;;;;4953932;29;20266;-62
2024/02/22 05:58:18;;;;;;;0.30;0.30;;;10.40;99.90;;;;;;4955087;28;20170;-63
2024/02/22 06:00:45;;;;;;;0.30;0.30;;;10.30;99.90;;;;;;4958096;29;20181;-63
2024/02/22 06:03:11;;;;;;;0.30;0.30;;;10.30;99.90;;;;;;4941273;29;20261;-63
2024/02/22 06:05:37;;;;;;;0.30;0.30;;;10.30;99.90;;;;;;4938179;29;20206;-64
2024/02/22 06:08:06;;;;;;;0.30;0.30;;;10.30;99.90;;;;;;4938729;29;20224;-64
2024/02/22 06:10:32;;;;;;;0.30;0.30;;;10.20;99.90;;;;;;4939689;29;20174;-64
2024/02/22 06:12:57;;;;;;;0.30;0.30;;;10.20;99.90;;;;;;4939189;29;20548;-63
2024/02/22 06:15:23;;;;;;;0.30;0.30;;;10.20;99.90;;;;;;4938705;29;20177;-63
2024/02/22 06:17:52;;;;;;;0.30;0.30;;;10.30;99.90;;;;;;4939299;29;20229;-63
2024/02/22 06:20:18;;;;;;;0.30;0.30;;;10.30;99.90;;;;;;4954359;28;20189;-63
2024/02/22 06:22:43;;;;;;;0.30;0.30;;;10.30;99.90;;;;;;4939178;29;20297;-62
2024/02/22 06:25:09;;;;;;;0.30;0.30;;;10.30;99.90;;;;;;4947239;29;20521;-62
2024/02/22 06:27:36;;;;;;;0.30;0.30;;;10.30;99.90;;;;;;4957383;29;20197;-64
2024/02/22 06:30:05;;;;;;;0.30;0.30;;;10.30;99.90;;;;;;4957305;29;20529;-62
2024/02/22 06:32:30;;;;;;;0.30;0.30;;;10.30;99.90;;;;;;4957294;29;20173;-63
2024/02/22 06:34:56;;;;;;;0.30;0.30;;;10.40;99.90;;;;;;4972048;28;20173;-66
2024/02/22 06:37:21;;;;;;;0.30;0.30;;;10.40;99.90;;;;;;4966904;28;20207;-64
2024/02/22 06:39:47;;;;;;;0.30;0.30;;;10.40;99.90;;;;;;4956491;29;20193;-66
2024/02/22 06:42:13;;;;;;;0.30;0.30;;;10.40;99.90;;;;;;4939792;29;20178;-66
2024/02/22 06:44:38;;;;;;;0.30;0.30;;;10.40;99.90;;;;;;4956620;29;20936;-66
2024/02/22 06:47:05;;;;;;;0.30;0.30;;;10.40;99.90;;;;;;4962096;28;20491;-66
2024/02/22 06:49:32;;;;;;;0.30;0.30;;;10.40;99.90;;;;;;4976066;28;20196;-64
2024/02/22 06:52:01;;;;;;;0.30;0.30;;;10.30;99.90;;;;;;4976208;28;20408;-65
2024/02/22 06:54:27;;;;;;;0.30;0.30;;;10.30;99.90;;;;;;4975974;28;20174;-63
2024/02/22 06:56:52;;;;;;;0.30;0.30;;;10.30;99.90;;;;;;4975933;28;20670;-63
2024/02/22 06:59:18;;;;;;;0.30;0.30;;;10.30;99.90;;;;;;4961243;28;20184;-65
2024/02/22 07:01:44;;;;;;;0.30;0.30;;;10.40;99.90;;;;;;4947278;29;20189;-64
2024/02/22 07:04:11;;;;;;;0.30;0.30;;;10.40;99.90;;;;;;4952560;29;20272;-64
2024/02/22 07:06:36;;;;;;;0.40;0.40;;;10.40;99.90;;;;;;4955710;29;20228;-64
2024/02/22 07:09:03;;;;;;;0.30;0.30;;;10.40;99.90;;;;;;4955065;28;20171;-66
2024/02/22 07:11:29;;;;;;;0.32;0.32;;;10.40;99.90;;;;;;4955917;29;20186;-67
2024/02/22 07:13:56;;;;;;;0.30;0.30;;;10.40;99.90;;;;;;4955832;29;20541;-68
2024/02/22 07:16:25;;;;;;;0.30;0.30;;;10.40;99.90;;;;;;4923696;29;20645;-67
2024/02/22 07:18:51;;;;;;;0.30;0.30;;;10.40;99.90;;;;;;4937524;29;20175;-67
2024/02/22 07:21:16;;;;;;;0.30;0.30;;;10.40;99.90;;;;;;4944586;28;20193;-65
2024/02/22 07:23:42;;;;;;;0.30;0.30;;;10.40;99.90;;;;;;4956353;29;20179;-66
2024/02/22 07:26:09;;;;;;;0.40;0.40;;;10.40;99.90;;;;;;4956429;28;20272;-63
2024/02/22 07:28:36;;;;;;;0.30;0.30;;;10.40;99.90;;;;;;4945185;29;20559;-64
2024/02/22 07:31:02;;;;;;;0.30;0.28;;;10.40;99.90;;;;;;4957025;28;20173;-66
2024/02/22 07:33:29;;;;;;;0.30;0.30;;;10.40;99.90;;;;;;4956197;29;20675;-63
2024/02/22 07:35:55;;;;;;;0.40;0.40;;;10.40;99.90;;;;;;4950000;29;20203;-64
2024/02/22 07:38:22;;;;;;;0.30;0.30;;;10.50;99.90;;;;;;4956715;29;20250;-64
2024/02/22 07:40:48;;;;;;;0.40;0.40;;;10.50;99.90;;;;;;4942339;29;20180;-64
2024/02/22 07:43:14;;;;;;;0.30;0.30;;;10.50;99.90;;;;;;4950520;28;20180;-65
2024/02/22 07:45:42;;;;;;;0.30;0.30;;;10.50;99.90;;;;;;4940777;29;20227;-65
2024/02/22 07:48:11;;;;;;;0.40;0.40;;;10.50;99.90;;;;;;4952136;29;20199;-64
2024/02/22 07:50:37;;;;;;;0.40;0.40;;;10.50;99.90;;;;;;4945583;29;20179;-64
2024/02/22 07:53:03;;;;;;;0.30;0.30;;;10.50;99.90;;;;;;4956957;28;20396;-65
2024/02/22 07:55:29;;;;;;;0.30;0.30;;;10.60;99.90;;;;;;4975832;28;20527;-67
2024/02/22 07:57:54;;;;;;;0.30;0.30;;;10.50;99.90;;;;;;4976804;28;20189;-65
2024/02/22 08:00:20;;;;;;;0.30;0.30;;;10.60;99.90;;;;;;4977042;28;20453;-64
2024/02/22 08:02:46;;;;;;;0.30;0.30;;;10.60;99.90;;;;;;4973034;28;20264;-66
2024/02/22 08:05:11;;;;;;;0.30;0.30;;;10.60;99.90;;;;;;4938814;29;20197;-64
2024/02/22 08:07:38;;;;;;;0.30;0.30;;;10.60;99.90;;;;;;4942054;29;20690;-65
2024/02/22 08:10:05;;;;;;;0.30;0.20;;;10.60;99.90;;;;;;4945867;29;20663;-64
2024/02/22 08:12:31;;;;;;;0.30;0.30;;;10.60;99.90;;;;;;4920879;29;20642;-63
2024/02/22 08:14:58;;;;;;;0.30;0.30;;;10.60;99.90;;;;;;4937527;29;20946;-65
2024/02/22 08:17:23;;;;;;;0.30;0.30;;;10.70;99.90;;;;;;4956637;29;20491;-66
2024/02/22 08:19:49;;;;;;;0.37;0.37;;;10.70;99.90;;;;;;4956612;29;20385;-64
2024/02/22 08:22:16;;;;;;;0.30;0.30;;;10.70;99.90;;;;;;4956080;28;20642;-63
2024/02/22 08:24:42;;;;;;;0.30;0.30;;;10.70;99.90;;;;;;4956160;29;20541;-65
2024/02/22 08:27:10;;;;;;;0.40;0.40;;;10.80;99.90;;;;;;4920857;29;20610;-65
2024/02/22 08:29:35;;;;;;;0.30;0.20;;;10.80;99.90;;;;;;4936874;29;20410;-65
2024/02/22 08:32:02;;;;;;;0.30;0.30;;;10.80;99.90;;;;;;4937327;28;20174;-64
2024/02/22 08:34:28;;;;;;;0.30;0.30;;;10.80;99.90;;;;;;4960085;28;20173;-68
2024/02/22 08:36:54;;;;;;;0.30;0.30;;;10.80;99.90;;;;;;4955799;29;20924;-65
2024/02/22 08:39:19;;;;;;;0.30;0.20;;;10.80;99.90;;;;;;4956128;29;20187;-65
2024/02/22 08:41:45;;;;;;;0.30;0.30;;;10.80;99.90;;;;;;4956185;29;20174;-65
2024/02/22 08:44:10;;;;;;;0.30;0.30;;;10.90;99.90;;;;;;4955702;29;20183;-65
2024/02/22 08:46:36;;;;;;;0.30;0.30;;;10.90;99.90;;;;;;4947874;29;20302;-64
2024/02/22 08:49:02;;;;;;;0.30;0.30;;;10.90;99.90;;;;;;4946726;29;20255;-65
2024/02/22 08:51:27;;;;;;;0.30;0.20;;;10.90;99.90;;;;;;4953014;29;20228;-62
2024/02/22 08:53:53;;;;;;;0.30;0.30;;;11.00;99.90;;;;;;4952206;29;20172;-65
2024/02/22 08:56:18;;;;;;;0.40;0.40;;;11.00;99.90;;;;;;4947461;29;20345;-66
2024/02/22 08:58:44;;;;;;;0.30;0.20;;;11.00;99.90;;;;;;4929210;29;20207;-65
2024/02/22 09:01:11;;;;;;;0.30;0.30;;;11.00;99.90;;;;;;4946932;29;20180;-64
2024/02/22 09:03:36;;;;;;;0.30;0.30;;;11.10;99.90;;;;;;4938735;29;20197;-65
2024/02/22 09:06:02;;;;;;;0.30;0.30;;;11.10;99.90;;;;;;4947451;29;20413;-65
2024/02/22 09:08:28;;;;;;;0.30;0.30;;;11.20;99.90;;;;;;4950944;29;20238;-64
2024/02/22 09:10:53;;;;;;;0.30;0.30;;;11.20;99.90;;;;;;4937440;29;20205;-66
2024/02/22 09:13:19;;;;;;;0.30;0.30;;;11.20;99.90;;;;;;4954700;29;20175;-66
2024/02/22 09:15:49;;;;;;;0.30;0.30;;;11.30;99.90;;;;;;4954106;28;20242;-66
2024/02/22 09:18:15;;;;;;;0.30;0.20;;;11.30;99.90;;;;;;4954923;29;20171;-66
2024/02/22 09:20:41;;;;;;;0.30;0.30;;;11.40;99.90;;;;;;4954618;29;20419;-63
2024/02/22 09:23:06;;;;;;;0.30;0.30;;;11.50;99.90;;;;;;4954488;29;20394;-66
2024/02/22 09:25:32;;;;;;;0.30;0.20;;;11.60;99.90;;;;;;4954250;29;20204;-65
2024/02/22 09:27:57;;;;;;;0.30;0.20;;;11.60;99.90;;;;;;4954346;29;20207;-64
2024/02/22 09:30:23;;;;;;;0.50;0.40;;;11.70;99.90;;;;;;4954226;29;20180;-65
2024/02/22 09:32:51;;;;;;;0.30;0.30;;;11.70;99.90;;;;;;4956144;28;20634;-66
2024/02/22 09:35:17;;;;;;;0.30;0.30;;;11.70;99.90;;;;;;4957951;28;20772;-65
2024/02/22 09:37:43;;;;;;;0.30;0.30;;;11.70;99.90;;;;;;4958396;29;20506;-65
2024/02/22 09:40:12;;;;;;;0.30;0.20;;;11.70;99.90;;;;;;4943218;29;20861;-66
2024/02/22 09:42:38;;;;;;;0.30;0.30;;;11.70;99.90;;;;;;4938981;29;20394;-64
2024/02/22 09:45:05;;;;;;;0.30;0.20;;;11.80;99.90;;;;;;4938813;29;20420;-64
2024/02/22 09:47:31;;;;;;;0.30;0.30;;;11.80;99.90;;;;;;4938574;29;20985;-66
2024/02/22 09:49:57;;;;;;;0.30;0.30;;;11.80;99.90;;;;;;4938954;29;20426;-65
2024/02/22 09:52:23;;;;;;;0.30;0.30;;;11.80;99.90;;;;;;4938833;29;20180;-64
2024/02/22 09:54:49;;;;;;;0.30;0.30;;;11.80;99.90;;;;;;4951759;29;20404;-66
2024/02/22 09:57:14;;;;;;;0.30;0.20;;;11.80;99.90;;;;;;4957728;29;20793;-65
2024/02/22 09:59:50;;;;;;;0.30;0.30;;;11.80;99.90;;;;;;4958028;29;20688;-65
2024/02/22 10:02:16;;;;;;;0.30;0.30;;;11.90;99.90;;;;;;4957782;29;20193;-64
2024/02/22 10:04:55;;;;;;;0.40;0.40;;;11.90;99.90;;;;;;4940309;29;20422;-65
2024/02/22 10:07:25;;;;;;;0.30;0.30;;;11.90;99.90;;;;;;4957547;29;20843;-65
2024/02/22 10:09:52;;;;;;;0.30;0.30;;;12.00;99.90;;;;;;4957075;29;20444;-65
2024/02/22 10:12:28;;;;;;;0.30;0.30;;;12.00;99.90;;;;;;4957768;29;20418;-67
2024/02/22 10:14:54;;;;;;;0.30;0.30;;;12.00;99.90;;;;;;4939835;29;20450;-65
2024/02/22 10:17:31;;;;;;;0.30;0.30;;;12.00;99.90;;;;;;4957438;29;20462;-63
2024/02/22 10:19:58;;;;;;;0.30;0.30;;;12.10;99.90;;;;;;4957363;29;20473;-62
2024/02/22 10:22:24;;;;;;;0.30;0.20;;;12.20;99.90;;;;;;4957322;29;20398;-65
2024/02/22 10:24:55;;;;;;;0.30;0.20;;;12.30;99.90;;;;;;4938857;29;20500;-65
2024/02/22 10:27:22;;;;;;;0.30;0.30;;;12.30;99.90;;;;;;4937854;29;20545;-66
2024/02/22 10:29:49;;;;;;;0.30;0.30;;;12.30;99.90;;;;;;4938256;29;20481;-66
2024/02/22 10:32:17;;;;;;;0.30;0.30;;;12.30;99.90;;;;;;4938181;29;20842;-65
2024/02/22 10:34:43;;;;;;;0.30;0.30;;;12.40;99.90;;;;;;4937474;29;20495;-65
2024/02/22 10:37:10;;;;;;;0.30;0.30;;;12.40;99.90;;;;;;4937993;29;21031;-65
2024/02/22 10:39:38;;;;;;;0.30;0.20;;;12.40;99.90;;;;;;4956222;29;20391;-65
2024/02/22 10:42:04;;;;;;;0.30;0.30;;;12.50;99.90;;;;;;4957044;29;20444;-66
2024/02/22 10:44:30;;;;;;;0.30;0.30;;;12.40;99.90;;;;;;4956081;28;20417;-66
2024/02/22 10:46:56;;;;;;;0.30;0.20;;;12.40;99.90;;;;;;4956674;28;20470;-67
2024/02/22 10:49:27;;;;;;;0.30;0.30;;;12.40;99.90;;;;;;4939825;29;20172;-66
2024/02/22 10:51:54;;;;;;;0.30;0.30;;;12.40;99.90;;;;;;4956993;29;20494;-66
2024/02/22 10:54:20;;;;;;;0.30;0.30;;;12.40;99.90;;;;;;4938221;29;20502;-67
2024/02/22 10:56:48;;;;;;;0.30;0.20;;;12.40;99.90;;;;;;4937548;29;20542;-65
2024/02/22 10:59:20;;;;;;;0.30;0.30;;;12.40;99.90;;;;;;4938015;29;20768;-67
2024/02/22 11:01:46;;;;;;;0.30;0.20;;;12.40;99.90;;;;;;4920680;29;20463;-67
2024/02/22 11:04:14;;;;;;;0.30;0.30;;;12.40;99.90;;;;;;4937830;29;20420;-68
2024/02/22 11:06:41;;;;;;;0.30;0.20;;;12.40;99.90;;;;;;4919914;29;20451;-66
2024/02/22 11:09:24;;;;;;;0.30;0.30;;;12.40;99.90;;;;;;4937580;29;20812;-68
2024/02/22 11:11:52;;;;;;;0.30;0.30;;;12.30;99.90;;;;;;4937139;29;20507;-67
2024/02/22 11:14:40;;;;;;;0.30;0.27;;;12.30;99.90;;;;;;4939006;29;20419;-69
2024/02/22 11:17:19;;;;;;;0.30;0.20;;;12.30;99.90;;;;;;4955524;29;20804;-67
2024/02/22 11:19:44;;;;;;;0.30;0.20;;;12.30;99.90;;;;;;4954930;29;20437;-67
2024/02/22 11:22:14;;;;;;;0.30;0.30;;;12.20;99.90;;;;;;4956372;29;20383;-67
2024/02/22 11:24:40;;;;;;;0.30;0.30;;;12.20;99.90;;;;;;4955906;29;20183;-65
2024/02/22 11:27:06;;;;;;;0.30;0.30;;;12.20;99.90;;;;;;4954963;29;20441;-68
2024/02/22 11:29:36;;;;;;;0.30;0.30;;;12.10;99.90;;;;;;4954011;29;20247;-67
2024/02/22 11:32:04;;;;;;;0.30;0.30;;;12.10;99.90;;;;;;4937203;29;20231;-66
2024/02/22 11:34:30;;;;;;;0.30;0.30;;;12.00;99.90;;;;;;4953925;29;20725;-68
2024/02/22 11:37:19;;;;;;;0.30;0.30;;;11.90;99.90;;;;;;4954190;29;20484;-67
2024/02/22 11:39:46;;;;;;;0.30;0.30;;;11.80;99.90;;;;;;4937591;29;20415;-66
2024/02/22 11:42:15;;;;;;;0.30;0.30;;;11.80;99.90;;;;;;4955297;29;20438;-66
2024/02/22 11:44:44;;;;;;;0.30;0.30;;;11.80;99.90;;;;;;4946744;29;20427;-66
2024/02/22 11:47:12;;;;;;;0.30;0.30;;;11.70;99.90;;;;;;4920094;29;20461;-66
2024/02/22 11:49:37;;;;;;;0.30;0.30;;;11.70;99.90;;;;;;4936927;29;20412;-66
2024/02/22 11:52:03;;;;;;;0.30;0.30;;;11.70;99.90;;;;;;4936770;29;20472;-66
2024/02/22 11:54:29;;;;;;;0.30;0.30;;;11.70;99.90;;;;;;4936556;29;20177;-67
2024/02/22 11:56:54;;;;;;;0.30;0.30;;;11.70;99.90;;;;;;4918616;29;20795;-65
2024/02/22 11:59:20;;;;;;;0.30;0.30;;;11.70;99.90;;;;;;4936617;29;20214;-68
2024/02/22 12:01:47;;;;;;;0.30;0.30;;;11.70;99.90;;;;;;4936624;29;20179;-66
2024/02/22 12:04:14;;;;;;;0.30;0.30;;;11.70;99.90;;;;;;4936600;29;20238;-65
2024/02/22 12:06:40;;;;;;;0.30;0.30;;;11.80;99.90;;;;;;4935990;29;20510;-66
2024/02/22 12:09:07;;;;;;;0.30;0.30;;;11.80;99.90;;;;;;4936685;29;20412;-66
2024/02/22 12:11:34;;;;;;;0.30;0.30;;;11.90;99.90;;;;;;4936398;29;20424;-66
2024/02/22 12:14:03;;;;;;;0.30;0.20;;;12.00;99.90;;;;;;4943575;29;20578;-67
2024/02/22 12:16:30;;;;;;;0.30;0.30;;;12.10;99.90;;;;;;4954715;29;20435;-66
2024/02/22 12:18:56;;;;;;;0.30;0.30;;;12.20;99.90;;;;;;4955780;29;20449;-67
2024/02/22 12:21:26;;;;;;;0.30;0.30;;;12.30;99.90;;;;;;4955307;29;20750;-67
2024/02/22 12:23:56;;;;;;;0.30;0.30;;;12.40;99.90;;;;;;4955747;29;20408;-67
2024/02/22 12:26:21;;;;;;;0.30;0.30;;;12.50;99.90;;;;;;4954776;29;20451;-67
2024/02/22 12:28:51;;;;;;;0.30;0.30;;;12.50;99.90;;;;;;4954969;29;20415;-66
2024/02/22 12:31:18;;;;;;;0.30;0.20;;;12.50;99.90;;;;;;4943421;29;20259;-65
2024/02/22 12:33:51;;;;;;;1.37;1.37;;;12.50;99.90;;;;;;4936045;29;20384;-66
2024/02/22 12:36:18;;;;;;;0.30;0.30;;;12.50;99.90;;;;;;4935924;29;20424;-65
2024/02/22 12:38:44;;;;;;;0.30;0.30;;;12.50;99.90;;;;;;4936195;29;20468;-65
2024/02/22 12:41:11;;;;;;;0.30;0.20;;;12.50;99.90;;;;;;4936082;29;20808;-66
2024/02/22 12:43:39;;;;;;;0.30;0.30;;;12.50;99.90;;;;;;4950064;29;20388;-64
2024/02/22 12:46:04;;;;;;;0.30;0.30;;;12.50;99.90;;;;;;4941528;29;20515;-67
2024/02/22 12:48:30;;;;;;;0.30;0.30;;;12.50;99.90;;;;;;4936153;29;20527;-67
2024/02/22 12:50:55;;;;;;;0.30;0.20;;;12.50;99.90;;;;;;4943025;29;20180;-69
2024/02/22 12:53:23;;;;;;;0.30;0.30;;;12.50;99.90;;;;;;4949102;28;20192;-67
2024/02/22 12:55:49;;;;;;;0.30;0.30;;;12.60;99.90;;;;;;4949483;28;20204;-68
2024/02/22 12:58:14;;;;;;;0.30;0.30;;;12.60;99.90;;;;;;4962629;28;20775;-68
2024/02/22 13:00:41;;;;;;;0.40;0.40;;;12.50;99.90;;;;;;4926367;29;20411;-66
2024/02/22 13:03:07;;;;;;;0.30;0.30;;;12.60;99.90;;;;;;4955247;29;20183;-67
2024/02/22 13:05:33;;;;;;;0.30;0.30;;;12.50;99.90;;;;;;4947472;29;20439;-68
2024/02/22 13:07:59;;;;;;;0.30;0.30;;;12.60;99.90;;;;;;4937392;29;21219;-68
2024/02/22 13:10:25;;;;;;;0.50;0.50;;;12.60;99.90;;;;;;4939767;29;20412;-68
2024/02/22 13:12:51;;;;;;;0.30;0.30;;;12.60;99.90;;;;;;4939560;29;20387;-68
2024/02/22 13:15:17;;;;;;;0.30;0.30;;;12.50;99.90;;;;;;4922017;29;20207;-65
2024/02/22 13:17:44;;;;;;;0.30;0.30;;;12.50;99.90;;;;;;4939648;29;20387;-67
2024/02/22 13:20:12;;;;;;;0.30;0.30;;;12.50;99.90;;;;;;4942474;29;20760;-65
2024/02/22 13:22:38;;;;;;;0.30;0.30;;;12.40;99.90;;;;;;4954286;28;20431;-65
2024/02/22 13:25:05;;;;;;;0.30;0.30;;;12.40;99.90;;;;;;4965479;28;20432;-65
2024/02/22 13:27:33;;;;;;;0.30;0.20;;;12.40;99.90;;;;;;4970727;28;20456;-65
2024/02/22 13:29:59;;;;;;;0.30;0.30;;;12.30;99.90;;;;;;4978004;28;20976;-66
2024/02/22 13:32:24;;;;;;;0.30;0.30;;;12.40;99.90;;;;;;4977341;28;20499;-66
2024/02/22 13:35:19;;;;;;;0.30;0.30;;;12.30;99.90;;;;;;4969092;28;20539;-64
2024/02/22 13:37:45;;;;;;;0.30;0.30;;;12.30;99.90;;;;;;4959323;28;20598;-61
2024/02/22 13:40:11;;;;;;;0.30;0.30;;;12.30;99.90;;;;;;4976406;28;20418;-64
2024/02/22 13:42:38;;;;;;;0.30;0.30;;;12.20;99.90;;;;;;4966884;28;20176;-64
2024/02/22 13:45:04;;;;;;;0.40;0.40;;;12.20;99.90;;;;;;4957287;28;20415;-68
2024/02/22 13:47:30;;;;;;;0.30;0.30;;;12.20;99.90;;;;;;4956934;28;20470;-64
2024/02/22 13:50:08;;;;;;;0.30;0.30;;;12.20;99.90;;;;;;4955178;29;20510;-65
2024/02/22 13:52:59;;;;;;;0.30;0.20;;;12.10;99.90;;;;;;4965154;28;20426;-66
2024/02/22 13:55:25;;;;;;;0.30;0.30;;;12.10;99.90;;;;;;4964057;28;20423;-66
2024/02/22 13:57:50;;;;;;;0.30;0.30;;;12.10;99.90;;;;;;4930168;29;20894;-64
2024/02/22 14:00:16;;;;;;;0.30;0.30;;;12.00;99.90;;;;;;4956021;29;20199;-66
2024/02/22 14:02:43;;;;;;;0.30;0.30;;;11.90;99.90;;;;;;4952749;29;20191;-64
2024/02/22 14:05:29;;;;;;;0.30;0.30;;;11.90;99.90;;;;;;4947909;28;20633;-62
2024/02/22 14:07:57;;;;;;;0.30;0.30;;;11.90;99.90;;;;;;4962681;28;20492;-66
2024/02/22 14:10:30;;;;;;;0.30;0.30;;;11.80;99.90;;;;;;4971171;28;20452;-65
2024/02/22 14:12:55;;;;;;;0.30;0.20;;;11.70;99.90;;;;;;4956075;28;20398;-68
2024/02/22 14:15:22;;;;;;;0.57;0.57;;;11.70;99.90;;;;;;4948386;29;20428;-67
2024/02/22 14:17:48;;;;;;;0.30;0.20;;;11.60;99.90;;;;;;4956778;29;20645;-68
2024/02/22 14:20:14;;;;;;;0.30;0.30;;;11.60;99.90;;;;;;4956194;28;20414;-65
2024/02/22 14:22:41;;;;;;;0.30;0.30;;;11.60;99.90;;;;;;4938318;29;20434;-66
2024/02/22 14:25:19;;;;;;;0.30;0.30;;;11.60;99.90;;;;;;4955297;29;20417;-65
2024/02/22 14:27:48;;;;;;;0.30;0.20;;;11.50;99.90;;;;;;4954809;29;20833;-64
2024/02/22 14:30:14;;;;;;;0.30;0.30;;;11.50;99.90;;;;;;4961536;28;20413;-66
2024/02/22 14:32:40;;;;;;;0.30;0.30;;;11.60;99.90;;;;;;4974906;28;20174;-65
2024/02/22 14:35:06;;;;;;;0.30;0.30;;;11.60;99.90;;;;;;4974713;28;20480;-65
2024/02/22 14:37:31;;;;;;;0.30;0.30;;;11.60;99.90;;;;;;4975036;28;20433;-64
2024/02/22 14:39:57;;;;;;;0.30;0.20;;;11.60;99.90;;;;;;4975176;28;20469;-64
2024/02/22 14:42:23;;;;;;;0.30;0.20;;;11.60;99.90;;;;;;4957746;28;20260;-62
2024/02/22 14:44:49;;;;;;;0.30;0.20;;;11.60;99.90;;;;;;4955779;28;20199;-66
2024/02/22 14:47:14;;;;;;;0.40;0.40;;;11.60;99.90;;;;;;4957168;29;20475;-62
2024/02/22 14:49:44;;;;;;;0.30;0.30;;;11.60;99.90;;;;;;4957288;29;20182;-65
2024/02/22 14:52:11;;;;;;;0.30;0.30;;;11.70;99.90;;;;;;4957072;29;20666;-67
2024/02/22 14:54:40;;;;;;;0.30;0.30;;;11.70;99.90;;;;;;4956691;29;20444;-64
2024/02/22 14:57:07;;;;;;;0.30;0.30;;;11.70;99.90;;;;;;4957029;29;20554;-66
2024/02/22 14:59:33;;;;;;;0.30;0.30;;;11.70;99.90;;;;;;4938854;29;20423;-66
2024/02/22 15:01:58;;;;;;;0.30;0.30;;;11.80;99.90;;;;;;4949264;28;20401;-66
2024/02/22 15:04:24;;;;;;;0.30;0.23;;;11.80;99.90;;;;;;4970328;28;20214;-67
2024/02/22 15:07:13;;;;;;;0.30;0.30;;;11.80;99.90;;;;;;4959862;28;20215;-66
2024/02/22 15:09:41;;;;;;;0.30;0.30;;;11.90;99.90;;;;;;4953923;28;20482;-64
2024/02/22 15:12:08;;;;;;;0.30;0.30;;;11.90;99.90;;;;;;4967900;28;20431;-65
2024/02/22 15:14:34;;;;;;;0.30;0.30;;;11.90;99.90;;;;;;4956323;28;20442;-63
2024/02/22 15:17:00;;;;;;;0.30;0.30;;;11.90;99.90;;;;;;4956225;28;20797;-65
2024/02/22 15:19:26;;;;;;;0.30;0.30;;;11.90;99.90;;;;;;4956444;29;20182;-65
2024/02/22 15:21:52;;;;;;;0.30;0.30;;;11.90;99.90;;;;;;4956144;29;20422;-65
2024/02/22 15:24:42;;;;;;;0.30;0.30;;;11.90;99.90;;;;;;4955085;28;20183;-64
2024/02/22 15:27:12;;;;;;;0.30;0.30;;;11.90;99.90;;;;;;4963681;28;20476;-68
2024/02/22 15:29:37;;;;;;;0.30;0.30;;;11.90;99.90;;;;;;4953525;28;20427;-68
2024/02/22 15:32:06;;;;;;;0.30;0.30;;;11.80;99.90;;;;;;4955436;28;20266;-68
2024/02/22 15:34:33;;;;;;;0.30;0.30;;;11.80;99.90;;;;;;4954524;28;20218;-67
2024/02/22 15:36:58;;;;;;;0.30;0.20;;;11.80;99.90;;;;;;4955512;28;20455;-67
2024/02/22 15:39:24;;;;;;;0.30;0.30;;;11.80;99.90;;;;;;4954314;28;20394;-66
2024/02/22 15:41:51;;;;;;;0.30;0.30;;;11.80;99.90;;;;;;4970005;28;20870;-67
2024/02/22 15:44:17;;;;;;;0.33;0.33;;;11.80;99.90;;;;;;4955754;29;20195;-66
2024/02/22 15:46:43;;;;;;;0.30;0.30;;;11.80;99.90;;;;;;4953264;28;20542;-68
2024/02/22 15:49:10;;;;;;;0.30;0.30;;;11.80;99.90;;;;;;4936678;29;20923;-69
2024/02/22 15:51:39;;;;;;;0.30;0.20;;;11.80;99.90;;;;;;4954652;28;20531;-67
2024/02/22 15:54:06;;;;;;;0.30;0.30;;;11.80;99.90;;;;;;4954471;29;20415;-67
2024/02/22 15:56:32;;;;;;;0.30;0.30;;;11.80;99.90;;;;;;4954097;28;20439;-66
2024/02/22 15:58:58;;;;;;;0.30;0.30;;;11.80;99.90;;;;;;4955283;29;20414;-66
2024/02/22 16:01:25;;;;;;;0.30;0.20;;;11.80;99.90;;;;;;4969787;28;20421;-67
2024/02/22 16:03:50;;;;;;;0.30;0.20;;;11.80;99.90;;;;;;4955238;28;20188;-64
2024/02/22 16:06:16;;;;;;;0.30;0.20;;;11.80;99.90;;;;;;4953047;28;20454;-64
2024/02/22 16:08:42;;;;;;;0.30;0.30;;;11.70;99.90;;;;;;4962593;28;20393;-65
2024/02/22 16:11:09;;;;;;;0.30;0.30;;;11.80;99.90;;;;;;4972573;28;20216;-66
2024/02/22 16:13:34;;;;;;;0.30;0.30;;;11.80;99.90;;;;;;4953527;28;20430;-67
2024/02/22 16:16:01;;;;;;;0.30;0.30;;;11.80;99.90;;;;;;4952968;29;20891;-68
2024/02/22 16:18:26;;;;;;;0.30;0.30;;;11.80;99.90;;;;;;4935745;29;20664;-66
2024/02/22 16:20:52;;;;;;;0.30;0.30;;;11.80;99.90;;;;;;4964568;28;20441;-67
2024/02/22 16:23:18;;;;;;;0.30;0.30;;;11.90;99.90;;;;;;4974489;28;20175;-64
2024/02/22 16:25:44;;;;;;;0.30;0.27;;;11.80;99.90;;;;;;4973423;28;20699;-66
2024/02/22 16:28:10;;;;;;;0.30;0.30;;;11.90;99.90;;;;;;4956048;28;20455;-70
2024/02/22 16:30:36;;;;;;;0.30;0.20;;;11.80;99.90;;;;;;4954954;28;20430;-67
2024/02/22 16:33:02;;;;;;;0.30;0.30;;;11.80;99.90;;;;;;4937695;29;20178;-65
2024/02/22 16:35:29;;;;;;;0.30;0.30;;;11.80;99.90;;;;;;4954672;28;20411;-67
2024/02/22 16:37:54;;;;;;;0.30;0.30;;;11.80;99.90;;;;;;4954877;29;20439;-65
2024/02/22 16:40:23;;;;;;;0.30;0.30;;;11.80;99.90;;;;;;4954859;29;20414;-65
2024/02/22 16:42:50;;;;;;;0.30;0.30;;;11.80;99.90;;;;;;4953238;28;20202;-67
2024/02/22 16:45:16;;;;;;;0.30;0.30;;;11.80;99.90;;;;;;4948397;29;20435;-70
2024/02/22 16:47:45;;;;;;;0.30;0.30;;;11.80;99.90;;;;;;4948520;29;20451;-69
2024/02/22 16:50:12;;;;;;;0.30;0.30;;;11.70;99.90;;;;;;4954372;29;20474;-66
2024/02/22 16:52:38;;;;;;;0.30;0.30;;;11.60;99.90;;;;;;4918279;29;20395;-68
2024/02/22 16:55:04;;;;;;;0.33;0.33;;;11.60;99.90;;;;;;4935344;29;20409;-70
2024/02/22 16:57:32;;;;;;;0.30;0.30;;;11.60;99.90;;;;;;4939695;28;20417;-69
2024/02/22 16:59:58;;;;;;;0.30;0.30;;;11.50;99.90;;;;;;4973946;28;20475;-69
2024/02/22 17:02:26;;;;;;;0.30;0.30;;;11.40;99.90;;;;;;4974157;28;20405;-67
2024/02/22 17:04:52;;;;;;;0.30;0.30;;;11.40;99.90;;;;;;4973725;28;20480;-69
2024/02/22 17:07:19;;;;;;;0.30;0.30;;;11.30;99.90;;;;;;4973873;28;20790;-70
2024/02/22 17:09:45;;;;;;;0.30;0.30;;;11.30;99.90;;;;;;4956937;28;20409;-66
2024/02/22 17:12:11;;;;;;;0.30;0.30;;;11.30;99.90;;;;;;4958082;28;20418;-66
2024/02/22 17:14:38;;;;;;;0.40;0.40;;;11.30;99.90;;;;;;4954579;29;20173;-66
2024/02/22 17:17:05;;;;;;;0.30;0.30;;;11.30;99.90;;;;;;4954266;28;20196;-70
2024/02/22 17:19:30;;;;;;;0.30;0.30;;;11.30;99.90;;;;;;4944870;29;20192;-70
2024/02/22 17:21:57;;;;;;;0.30;0.30;;;11.30;99.90;;;;;;4946949;29;20565;-67
2024/02/22 17:24:23;;;;;;;0.30;0.30;;;11.30;99.90;;;;;;4954541;28;20257;-65
2024/02/22 17:26:52;;;;;;;0.30;0.30;;;11.30;99.90;;;;;;4939864;29;20473;-66
2024/02/22 17:29:18;;;;;;;0.40;0.40;;;11.30;99.90;;;;;;4918032;29;20941;-67
2024/02/22 17:31:44;;;;;;;0.30;0.20;;;11.40;99.90;;;;;;4935603;29;20403;-68
2024/02/22 17:34:09;;;;;;;0.30;0.30;;;11.40;99.90;;;;;;4939228;29;20422;-68
2024/02/22 17:36:35;;;;;;;0.30;0.20;;;11.40;99.90;;;;;;4946676;28;20238;-70
2024/02/22 17:39:01;;;;;;;0.30;0.30;;;11.40;99.90;;;;;;4954306;29;20185;-68
2024/02/22 17:41:27;;;;;;;0.30;0.30;;;11.40;99.90;;;;;;4954736;29;20285;-69
2024/02/22 17:43:53;;;;;;;0.30;0.30;;;11.40;99.90;;;;;;4954405;29;20172;-70
2024/02/22 17:46:19;;;;;;;0.30;0.30;;;11.50;99.90;;;;;;4954151;29;20216;-69
2024/02/22 17:48:45;;;;;;;0.30;0.30;;;11.50;99.90;;;;;;4954878;29;20515;-69
2024/02/22 17:51:12;;;;;;;0.30;0.30;;;11.50;99.90;;;;;;4935340;29;20690;-69
2024/02/22 17:53:39;;;;;;;0.30;0.30;;;11.50;99.90;;;;;;4919371;29;20186;-65